sensor_id;sensor_type;location;lat;lon;timestamp;temperature;humidity
23237;DHT22;11787;52.018;8.570;2023-05-07T00:01:34;14.30;99.90
23237;DHT22;11787;52.018;8.570;2023-05-07T00:04:00;14.30;99.90
23237;DHT22;11787;52.018;8.570;2023-05-07T00:06:26;14.20;99.90
23237;DHT22;11787;52.018;8.570;2023-05-07T00:08:54;14.20;99.90
23237;DHT22;11787;52.018;8.570;2023-05-07T00:11:20;14.10;99.90
23237;DHT22;11787;52.018;8.570;2023-05-07T00:13:46;14.10;99.90
23237;DHT22;11787;52.018;8.570;2023-05-07T00:16:11;14.10;99.90
23237;DHT22;11787;52.018;8.570;2023-05-07T00:18:37;14.10;99.90
23237;DHT22;11787;52.018;8.570;2023-05-07T00:21:03;14.10;99.90
23237;DHT22;11787;52.018;8.570;2023-05-07T00:23:28;14.10;99.90
23237;DHT22;11787;52.018;8.570;2023-05-07T00:25:54;14.00;99.90
23237;DHT22;11787;52.018;8.570;2023-05-07T00:28:20;14.00;99.90
23237;DHT22;11787;52.018;8.570;2023-05-07T00:30:45;14.00;99.90
23237;DHT22;11787;52.018;8.570;2023-05-07T00:33:11;13.90;99.90
23237;DHT22;11787;52.018;8.570;2023-05-07T00:35:36;13.90;99.90
23237;DHT22;11787;52.018;8.570;2023-05-07T00:38:02;13.80;99.90
23237;DHT22;11787;52.018;8.570;2023-05-07T00:40:27;13.80;99.90
23237;DHT22;11787;52.018;8.570;2023-05-07T00:42:53;13.80;99.90
23237;DHT22;11787;52.018;8.570;2023-05-07T00:45:25;13.80;99.90
23237;DHT22;11787;52.018;8.570;2023-05-07T00:47:53;13.80;99.90
23237;DHT22;11787;52.018;8.570;2023-05-07T00:50:19;13.80;99.90
23237;DHT22;11787;52.018;8.570;2023-05-07T00:52:45;13.70;99.90
23237;DHT22;11787;52.018;8.570;2023-05-07T00:55:11;13.70;99.90
23237;DHT22;11787;52.018;8.570;2023-05-07T00:57:40;13.80;99.90
23237;DHT22;11787;52.018;8.570;2023-05-07T01:00:07;13.60;99.90
23237;DHT22;11787;52.018;8.570;2023-05-07T01:02:37;13.70;99.90
23237;DHT22;11787;52.018;8.570;2023-05-07T01:05:04;13.60;99.90
23237;DHT22;11787;52.018;8.570;2023-05-07T01:07:32;13.60;99.90
23237;DHT22;11787;52.018;8.570;2023-05-07T01:09:58;13.60;99.90
23237;DHT22;11787;52.018;8.570;2023-05-07T01:12:24;13.60;99.90
23237;DHT22;11787;52.018;8.570;2023-05-07T01:14:50;13.60;99.90
23237;DHT22;11787;52.018;8.570;2023-05-07T01:17:17;13.50;99.90
23237;DHT22;11787;52.018;8.570;2023-05-07T01:19:42;13.50;99.90
23237;DHT22;11787;52.018;8.570;2023-05-07T01:22:10;13.40;99.90
23237;DHT22;11787;52.018;8.570;2023-05-07T01:24:40;13.50;99.90
23237;DHT22;11787;52.018;8.570;2023-05-07T01:27:06;13.40;99.90
23237;DHT22;11787;52.018;8.570;2023-05-07T01:29:32;13.40;99.90
23237;DHT22;11787;52.018;8.570;2023-05-07T01:31:59;13.40;99.90
23237;DHT22;11787;52.018;8.570;2023-05-07T01:34:27;13.40;99.90
23237;DHT22;11787;52.018;8.570;2023-05-07T01:36:54;13.40;99.90
23237;DHT22;11787;52.018;8.570;2023-05-07T01:39:22;13.40;99.90
23237;DHT22;11787;52.018;8.570;2023-05-07T01:41:49;13.40;99.90
23237;DHT22;11787;52.018;8.570;2023-05-07T01:44:16;13.30;99.90
23237;DHT22;11787;52.018;8.570;2023-05-07T01:46:43;13.30;99.90
23237;DHT22;11787;52.018;8.570;2023-05-07T01:49:09;13.40;99.90
23237;DHT22;11787;52.018;8.570;2023-05-07T01:51:35;13.30;99.90
23237;DHT22;11787;52.018;8.570;2023-05-07T01:54:01;13.30;99.90
23237;DHT22;11787;52.018;8.570;2023-05-07T01:56:27;13.30;99.90
23237;DHT22;11787;52.018;8.570;2023-05-07T01:58:52;13.30;99.90
23237;DHT22;11787;52.018;8.570;2023-05-07T02:01:18;13.30;99.90
23237;DHT22;11787;52.018;8.570;2023-05-07T02:03:44;13.30;99.90
23237;DHT22;11787;52.018;8.570;2023-05-07T02:06:09;13.30;99.90
23237;DHT22;11787;52.018;8.570;2023-05-07T02:08:35;13.30;99.90
23237;DHT22;11787;52.018;8.570;2023-05-07T02:11:01;13.20;99.90
23237;DHT22;11787;52.018;8.570;2023-05-07T02:13:29;13.20;99.90
23237;DHT22;11787;52.018;8.570;2023-05-07T02:15:55;13.20;99.90
23237;DHT22;11787;52.018;8.570;2023-05-07T02:18:20;13.20;99.90
23237;DHT22;11787;52.018;8.570;2023-05-07T02:20:46;13.20;99.90
23237;DHT22;11787;52.018;8.570;2023-05-07T02:23:12;13.20;99.90
23237;DHT22;11787;52.018;8.570;2023-05-07T02:25:37;13.20;99.90
23237;DHT22;11787;52.018;8.570;2023-05-07T02:28:03;13.20;99.90
23237;DHT22;11787;52.018;8.570;2023-05-07T02:30:29;13.20;99.90
23237;DHT22;11787;52.018;8.570;2023-05-07T02:33:19;13.20;99.90
23237;DHT22;11787;52.018;8.570;2023-05-07T02:35:44;13.20;99.90
23237;DHT22;11787;52.018;8.570;2023-05-07T02:38:10;13.20;99.90
23237;DHT22;11787;52.018;8.570;2023-05-07T02:40:36;13.20;99.90
23237;DHT22;11787;52.018;8.570;2023-05-07T02:43:04;13.10;99.90
23237;DHT22;11787;52.018;8.570;2023-05-07T02:45:31;13.10;99.90
23237;DHT22;11787;52.018;8.570;2023-05-07T02:47:58;13.10;99.90
23237;DHT22;11787;52.018;8.570;2023-05-07T02:50:23;13.00;99.90
23237;DHT22;11787;52.018;8.570;2023-05-07T02:52:49;13.00;99.90
23237;DHT22;11787;52.018;8.570;2023-05-07T02:55:15;13.00;99.90
23237;DHT22;11787;52.018;8.570;2023-05-07T02:57:41;13.00;99.90
23237;DHT22;11787;52.018;8.570;2023-05-07T03:00:19;13.00;99.90
23237;DHT22;11787;52.018;8.570;2023-05-07T03:02:45;12.90;99.90
23237;DHT22;11787;52.018;8.570;2023-05-07T03:05:10;12.90;99.90
23237;DHT22;11787;52.018;8.570;2023-05-07T03:07:37;12.90;99.90
23237;DHT22;11787;52.018;8.570;2023-05-07T03:10:03;12.90;99.90
23237;DHT22;11787;52.018;8.570;2023-05-07T03:12:29;12.80;99.90
23237;DHT22;11787;52.018;8.570;2023-05-07T03:14:55;12.80;99.90
23237;DHT22;11787;52.018;8.570;2023-05-07T03:17:21;12.80;99.90
23237;DHT22;11787;52.018;8.570;2023-05-07T03:19:47;12.90;99.90
23237;DHT22;11787;52.018;8.570;2023-05-07T03:22:12;12.80;99.90
23237;DHT22;11787;52.018;8.570;2023-05-07T03:24:38;12.80;99.90
23237;DHT22;11787;52.018;8.570;2023-05-07T03:27:04;12.80;99.90
23237;DHT22;11787;52.018;8.570;2023-05-07T03:29:29;12.80;99.90
23237;DHT22;11787;52.018;8.570;2023-05-07T03:31:55;12.80;99.90
23237;DHT22;11787;52.018;8.570;2023-05-07T03:34:20;12.80;99.90
23237;DHT22;11787;52.018;8.570;2023-05-07T03:36:50;12.80;99.90
23237;DHT22;11787;52.018;8.570;2023-05-07T03:39:16;12.80;99.90
23237;DHT22;11787;52.018;8.570;2023-05-07T03:41:41;12.70;99.90
23237;DHT22;11787;52.018;8.570;2023-05-07T03:44:07;12.70;99.90
23237;DHT22;11787;52.018;8.570;2023-05-07T03:46:33;12.70;99.90
23237;DHT22;11787;52.018;8.570;2023-05-07T03:48:59;12.60;99.90
23237;DHT22;11787;52.018;8.570;2023-05-07T03:51:25;12.60;99.90
23237;DHT22;11787;52.018;8.570;2023-05-07T03:53:51;12.60;99.90
23237;DHT22;11787;52.018;8.570;2023-05-07T03:56:19;12.60;99.90
23237;DHT22;11787;52.018;8.570;2023-05-07T03:58:47;12.70;99.90
23237;DHT22;11787;52.018;8.570;2023-05-07T04:01:12;12.60;99.90
23237;DHT22;11787;52.018;8.570;2023-05-07T04:03:38;12.60;99.90
23237;DHT22;11787;52.018;8.570;2023-05-07T04:06:03;12.60;99.90
23237;DHT22;11787;52.018;8.570;2023-05-07T04:08:29;12.60;99.90
23237;DHT22;11787;52.018;8.570;2023-05-07T04:10:58;12.60;99.90
23237;DHT22;11787;52.018;8.570;2023-05-07T04:13:24;12.70;99.90
23237;DHT22;11787;52.018;8.570;2023-05-07T04:15:51;12.70;99.90
23237;DHT22;11787;52.018;8.570;2023-05-07T04:18:17;12.60;99.90
23237;DHT22;11787;52.018;8.570;2023-05-07T04:20:43;12.60;99.90
23237;DHT22;11787;52.018;8.570;2023-05-07T04:23:08;12.60;99.90
23237;DHT22;11787;52.018;8.570;2023-05-07T04:25:34;12.60;99.90
23237;DHT22;11787;52.018;8.570;2023-05-07T04:28:00;12.60;99.90
23237;DHT22;11787;52.018;8.570;2023-05-07T04:30:25;12.60;99.90
23237;DHT22;11787;52.018;8.570;2023-05-07T04:32:52;12.60;99.90
23237;DHT22;11787;52.018;8.570;2023-05-07T04:35:18;12.60;99.90
23237;DHT22;11787;52.018;8.570;2023-05-07T04:37:44;12.60;99.90
23237;DHT22;11787;52.018;8.570;2023-05-07T04:40:10;12.60;99.90
23237;DHT22;11787;52.018;8.570;2023-05-07T04:42:35;12.60;99.90
23237;DHT22;11787;52.018;8.570;2023-05-07T04:45:01;12.60;99.90
23237;DHT22;11787;52.018;8.570;2023-05-07T04:47:27;12.60;99.90
23237;DHT22;11787;52.018;8.570;2023-05-07T04:49:53;12.60;99.90
23237;DHT22;11787;52.018;8.570;2023-05-07T04:52:18;12.60;99.90
23237;DHT22;11787;52.018;8.570;2023-05-07T04:54:44;12.60;99.90
23237;DHT22;11787;52.018;8.570;2023-05-07T04:57:09;12.50;99.90
23237;DHT22;11787;52.018;8.570;2023-05-07T04:59:35;12.50;99.90
23237;DHT22;11787;52.018;8.570;2023-05-07T05:02:00;12.60;99.90
23237;DHT22;11787;52.018;8.570;2023-05-07T05:04:26;12.60;99.90
23237;DHT22;11787;52.018;8.570;2023-05-07T05:06:52;12.70;99.90
23237;DHT22;11787;52.018;8.570;2023-05-07T05:09:18;12.70;99.90
23237;DHT22;11787;52.018;8.570;2023-05-07T05:11:43;12.70;99.90
23237;DHT22;11787;52.018;8.570;2023-05-07T05:14:09;12.70;99.90
23237;DHT22;11787;52.018;8.570;2023-05-07T05:16:35;12.70;99.90
23237;DHT22;11787;52.018;8.570;2023-05-07T05:19:01;12.70;99.90
23237;DHT22;11787;52.018;8.570;2023-05-07T05:21:27;12.80;99.90
23237;DHT22;11787;52.018;8.570;2023-05-07T05:23:53;12.80;99.90
23237;DHT22;11787;52.018;8.570;2023-05-07T05:26:18;12.80;99.90
23237;DHT22;11787;52.018;8.570;2023-05-07T05:28:44;12.80;99.90
23237;DHT22;11787;52.018;8.570;2023-05-07T05:31:10;12.70;99.90
23237;DHT22;11787;52.018;8.570;2023-05-07T05:33:35;12.80;99.90
23237;DHT22;11787;52.018;8.570;2023-05-07T05:36:01;12.90;99.90
23237;DHT22;11787;52.018;8.570;2023-05-07T05:38:27;12.90;99.90
23237;DHT22;11787;52.018;8.570;2023-05-07T05:40:52;13.00;99.90
23237;DHT22;11787;52.018;8.570;2023-05-07T05:43:18;13.00;99.90
23237;DHT22;11787;52.018;8.570;2023-05-07T05:45:43;13.00;99.90
23237;DHT22;11787;52.018;8.570;2023-05-07T05:48:09;13.00;99.90
23237;DHT22;11787;52.018;8.570;2023-05-07T05:50:35;13.10;99.90
23237;DHT22;11787;52.018;8.570;2023-05-07T05:53:03;13.10;99.90
23237;DHT22;11787;52.018;8.570;2023-05-07T05:55:29;13.00;99.90
23237;DHT22;11787;52.018;8.570;2023-05-07T05:57:55;13.10;99.90
23237;DHT22;11787;52.018;8.570;2023-05-07T06:00:22;13.20;99.90
23237;DHT22;11787;52.018;8.570;2023-05-07T06:02:48;13.30;99.90
23237;DHT22;11787;52.018;8.570;2023-05-07T06:05:13;13.40;99.90
23237;DHT22;11787;52.018;8.570;2023-05-07T06:07:39;13.40;99.90
23237;DHT22;11787;52.018;8.570;2023-05-07T06:10:05;13.50;99.90
23237;DHT22;11787;52.018;8.570;2023-05-07T06:12:31;13.60;99.90
23237;DHT22;11787;52.018;8.570;2023-05-07T06:14:57;13.70;99.90
23237;DHT22;11787;52.018;8.570;2023-05-07T06:17:22;13.70;99.90
23237;DHT22;11787;52.018;8.570;2023-05-07T06:19:48;13.70;99.90
23237;DHT22;11787;52.018;8.570;2023-05-07T06:22:13;13.80;99.90
23237;DHT22;11787;52.018;8.570;2023-05-07T06:24:39;13.70;99.90
23237;DHT22;11787;52.018;8.570;2023-05-07T06:27:04;13.70;99.90
23237;DHT22;11787;52.018;8.570;2023-05-07T06:29:30;13.60;99.90
23237;DHT22;11787;52.018;8.570;2023-05-07T06:32:06;13.60;99.90
23237;DHT22;11787;52.018;8.570;2023-05-07T06:34:32;13.50;99.90
23237;DHT22;11787;52.018;8.570;2023-05-07T06:36:57;13.60;99.90
23237;DHT22;11787;52.018;8.570;2023-05-07T06:39:24;13.70;99.90
23237;DHT22;11787;52.018;8.570;2023-05-07T06:41:49;13.80;99.90
23237;DHT22;11787;52.018;8.570;2023-05-07T06:44:15;13.80;99.90
23237;DHT22;11787;52.018;8.570;2023-05-07T06:46:41;13.80;99.90
23237;DHT22;11787;52.018;8.570;2023-05-07T06:49:07;14.00;99.90
23237;DHT22;11787;52.018;8.570;2023-05-07T06:51:33;14.20;99.90
23237;DHT22;11787;52.018;8.570;2023-05-07T06:53:59;14.30;99.90
23237;DHT22;11787;52.018;8.570;2023-05-07T06:56:24;14.40;99.90
23237;DHT22;11787;52.018;8.570;2023-05-07T06:58:50;14.40;99.90
23237;DHT22;11787;52.018;8.570;2023-05-07T07:01:16;14.30;99.90
23237;DHT22;11787;52.018;8.570;2023-05-07T07:03:41;14.30;99.90
23237;DHT22;11787;52.018;8.570;2023-05-07T07:06:07;14.40;99.90
23237;DHT22;11787;52.018;8.570;2023-05-07T07:08:32;14.40;99.90
23237;DHT22;11787;52.018;8.570;2023-05-07T07:10:58;14.30;99.90
23237;DHT22;11787;52.018;8.570;2023-05-07T07:13:24;14.30;99.90
23237;DHT22;11787;52.018;8.570;2023-05-07T07:15:49;14.40;99.90
23237;DHT22;11787;52.018;8.570;2023-05-07T07:18:15;14.50;99.90
23237;DHT22;11787;52.018;8.570;2023-05-07T07:20:41;14.70;99.90
23237;DHT22;11787;52.018;8.570;2023-05-07T07:23:06;14.80;99.90
23237;DHT22;11787;52.018;8.570;2023-05-07T07:25:32;14.90;99.90
23237;DHT22;11787;52.018;8.570;2023-05-07T07:27:58;15.00;99.90
23237;DHT22;11787;52.018;8.570;2023-05-07T07:30:23;15.10;99.90
23237;DHT22;11787;52.018;8.570;2023-05-07T07:32:49;15.10;99.90
23237;DHT22;11787;52.018;8.570;2023-05-07T07:35:14;15.20;99.90
23237;DHT22;11787;52.018;8.570;2023-05-07T07:37:40;15.30;99.90
23237;DHT22;11787;52.018;8.570;2023-05-07T07:40:06;15.30;99.90
23237;DHT22;11787;52.018;8.570;2023-05-07T07:42:32;15.40;99.90
23237;DHT22;11787;52.018;8.570;2023-05-07T07:44:57;15.40;99.90
23237;DHT22;11787;52.018;8.570;2023-05-07T07:47:23;15.40;99.90
23237;DHT22;11787;52.018;8.570;2023-05-07T07:49:49;15.30;99.90
23237;DHT22;11787;52.018;8.570;2023-05-07T07:52:14;15.30;99.90
23237;DHT22;11787;52.018;8.570;2023-05-07T07:54:40;15.30;99.90
23237;DHT22;11787;52.018;8.570;2023-05-07T07:57:06;15.40;99.90
23237;DHT22;11787;52.018;8.570;2023-05-07T07:59:31;15.60;99.90
23237;DHT22;11787;52.018;8.570;2023-05-07T08:01:57;15.50;99.90
23237;DHT22;11787;52.018;8.570;2023-05-07T08:04:23;15.50;99.90
23237;DHT22;11787;52.018;8.570;2023-05-07T08:06:48;15.40;99.90
23237;DHT22;11787;52.018;8.570;2023-05-07T08:09:14;15.50;99.90
23237;DHT22;11787;52.018;8.570;2023-05-07T08:11:40;15.60;99.90
23237;DHT22;11787;52.018;8.570;2023-05-07T08:14:06;15.70;99.90
23237;DHT22;11787;52.018;8.570;2023-05-07T08:16:31;15.90;99.90
23237;DHT22;11787;52.018;8.570;2023-05-07T08:18:57;15.80;99.90
23237;DHT22;11787;52.018;8.570;2023-05-07T08:21:23;15.90;99.90
23237;DHT22;11787;52.018;8.570;2023-05-07T08:23:49;15.90;99.90
23237;DHT22;11787;52.018;8.570;2023-05-07T08:26:14;15.90;99.90
23237;DHT22;11787;52.018;8.570;2023-05-07T08:28:40;16.10;99.90
23237;DHT22;11787;52.018;8.570;2023-05-07T08:31:05;16.20;99.90
23237;DHT22;11787;52.018;8.570;2023-05-07T08:33:31;16.30;99.90
23237;DHT22;11787;52.018;8.570;2023-05-07T08:35:57;16.30;99.90
23237;DHT22;11787;52.018;8.570;2023-05-07T08:38:22;16.20;99.90
23237;DHT22;11787;52.018;8.570;2023-05-07T08:40:48;16.30;99.90
23237;DHT22;11787;52.018;8.570;2023-05-07T08:43:14;16.30;99.90
23237;DHT22;11787;52.018;8.570;2023-05-07T08:45:40;16.30;99.90
23237;DHT22;11787;52.018;8.570;2023-05-07T08:48:14;16.40;99.90
23237;DHT22;11787;52.018;8.570;2023-05-07T08:50:40;16.40;99.90
23237;DHT22;11787;52.018;8.570;2023-05-07T08:53:06;16.40;99.90
23237;DHT22;11787;52.018;8.570;2023-05-07T08:55:32;16.30;99.90
23237;DHT22;11787;52.018;8.570;2023-05-07T08:57:58;16.50;99.90
23237;DHT22;11787;52.018;8.570;2023-05-07T09:00:24;16.60;99.90
23237;DHT22;11787;52.018;8.570;2023-05-07T09:02:50;16.90;99.90
23237;DHT22;11787;52.018;8.570;2023-05-07T09:05:16;16.90;99.90
23237;DHT22;11787;52.018;8.570;2023-05-07T09:07:41;17.00;99.90
23237;DHT22;11787;52.018;8.570;2023-05-07T09:10:07;16.80;99.90
23237;DHT22;11787;52.018;8.570;2023-05-07T09:12:33;16.60;99.90
23237;DHT22;11787;52.018;8.570;2023-05-07T09:15:00;16.60;99.90
23237;DHT22;11787;52.018;8.570;2023-05-07T09:17:26;16.80;99.90
23237;DHT22;11787;52.018;8.570;2023-05-07T09:19:52;16.80;99.90
23237;DHT22;11787;52.018;8.570;2023-05-07T09:22:18;16.80;99.90
23237;DHT22;11787;52.018;8.570;2023-05-07T09:24:48;16.90;99.90
23237;DHT22;11787;52.018;8.570;2023-05-07T09:27:14;16.90;99.90
23237;DHT22;11787;52.018;8.570;2023-05-07T09:29:40;16.80;99.90
23237;DHT22;11787;52.018;8.570;2023-05-07T09:32:07;16.80;99.90
23237;DHT22;11787;52.018;8.570;2023-05-07T09:34:33;16.80;99.90
23237;DHT22;11787;52.018;8.570;2023-05-07T09:37:00;16.90;99.90
23237;DHT22;11787;52.018;8.570;2023-05-07T09:39:26;16.90;99.90
23237;DHT22;11787;52.018;8.570;2023-05-07T09:41:51;16.90;99.90
23237;DHT22;11787;52.018;8.570;2023-05-07T09:44:20;17.20;99.90
23237;DHT22;11787;52.018;8.570;2023-05-07T09:46:47;17.10;99.90
23237;DHT22;11787;52.018;8.570;2023-05-07T09:49:22;17.10;99.90
23237;DHT22;11787;52.018;8.570;2023-05-07T09:51:50;17.20;99.90
23237;DHT22;11787;52.018;8.570;2023-05-07T09:54:17;17.40;99.90
23237;DHT22;11787;52.018;8.570;2023-05-07T09:56:44;17.70;99.90
23237;DHT22;11787;52.018;8.570;2023-05-07T09:59:13;17.70;99.90
23237;DHT22;11787;52.018;8.570;2023-05-07T10:01:40;17.90;99.90
23237;DHT22;11787;52.018;8.570;2023-05-07T10:04:07;18.10;99.90
23237;DHT22;11787;52.018;8.570;2023-05-07T10:06:37;18.20;99.90
23237;DHT22;11787;52.018;8.570;2023-05-07T10:09:04;18.30;99.90
23237;DHT22;11787;52.018;8.570;2023-05-07T10:11:36;18.30;99.90
23237;DHT22;11787;52.018;8.570;2023-05-07T10:14:02;17.90;99.90
23237;DHT22;11787;52.018;8.570;2023-05-07T10:16:32;18.10;99.90
23237;DHT22;11787;52.018;8.570;2023-05-07T10:19:02;18.60;99.90
23237;DHT22;11787;52.018;8.570;2023-05-07T10:21:29;18.90;99.90
23237;DHT22;11787;52.018;8.570;2023-05-07T10:24:04;19.20;99.90
23237;DHT22;11787;52.018;8.570;2023-05-07T10:26:35;19.50;99.90
23237;DHT22;11787;52.018;8.570;2023-05-07T10:29:07;19.10;99.90
23237;DHT22;11787;52.018;8.570;2023-05-07T10:34:39;18.50;99.90
23237;DHT22;11787;52.018;8.570;2023-05-07T10:37:06;18.60;99.90
23237;DHT22;11787;52.018;8.570;2023-05-07T10:39:32;18.60;99.90
23237;DHT22;11787;52.018;8.570;2023-05-07T10:42:08;19.00;99.90
23237;DHT22;11787;52.018;8.570;2023-05-07T10:44:33;19.30;99.90
23237;DHT22;11787;52.018;8.570;2023-05-07T10:47:15;19.40;99.90
23237;DHT22;11787;52.018;8.570;2023-05-07T10:52:23;19.40;99.90
23237;DHT22;11787;52.018;8.570;2023-05-07T10:57:46;20.20;99.90
23237;DHT22;11787;52.018;8.570;2023-05-07T11:05:24;20.50;99.90
23237;DHT22;11787;52.018;8.570;2023-05-07T11:08:02;20.90;99.90
23237;DHT22;11787;52.018;8.570;2023-05-07T11:10:57;20.90;99.90
23237;DHT22;11787;52.018;8.570;2023-05-07T11:16:20;20.70;99.90
23237;DHT22;11787;52.018;8.570;2023-05-07T11:21:35;20.80;99.90
23237;DHT22;11787;52.018;8.570;2023-05-07T11:24:02;20.60;99.90
23237;DHT22;11787;52.018;8.570;2023-05-07T11:26:30;21.00;99.90
23237;DHT22;11787;52.018;8.570;2023-05-07T11:28:56;20.90;99.90
23237;DHT22;11787;52.018;8.570;2023-05-07T11:31:26;20.70;99.90
23237;DHT22;11787;52.018;8.570;2023-05-07T11:33:54;20.90;99.90
23237;DHT22;11787;52.018;8.570;2023-05-07T11:36:22;21.30;99.90
23237;DHT22;11787;52.018;8.570;2023-05-07T11:38:48;21.40;99.90
23237;DHT22;11787;52.018;8.570;2023-05-07T11:41:16;21.10;99.90
23237;DHT22;11787;52.018;8.570;2023-05-07T11:44:03;21.20;99.90
23237;DHT22;11787;52.018;8.570;2023-05-07T11:46:28;21.20;99.90
23237;DHT22;11787;52.018;8.570;2023-05-07T11:48:55;21.20;99.90
23237;DHT22;11787;52.018;8.570;2023-05-07T11:51:22;21.00;99.90
23237;DHT22;11787;52.018;8.570;2023-05-07T11:53:49;21.10;99.90
23237;DHT22;11787;52.018;8.570;2023-05-07T11:56:17;21.00;99.90
23237;DHT22;11787;52.018;8.570;2023-05-07T11:58:44;21.30;99.90
23237;DHT22;11787;52.018;8.570;2023-05-07T12:01:11;21.60;99.90
23237;DHT22;11787;52.018;8.570;2023-05-07T12:03:40;21.80;99.90
23237;DHT22;11787;52.018;8.570;2023-05-07T12:06:10;21.80;99.90
23237;DHT22;11787;52.018;8.570;2023-05-07T12:08:37;21.70;99.90
23237;DHT22;11787;52.018;8.570;2023-05-07T12:11:03;21.60;99.90
23237;DHT22;11787;52.018;8.570;2023-05-07T12:13:32;21.30;99.90
23237;DHT22;11787;52.018;8.570;2023-05-07T12:15:57;21.40;99.90
23237;DHT22;11787;52.018;8.570;2023-05-07T12:18:23;21.50;99.90
23237;DHT22;11787;52.018;8.570;2023-05-07T12:20:50;21.50;99.90
23237;DHT22;11787;52.018;8.570;2023-05-07T12:23:17;21.20;99.90
23237;DHT22;11787;52.018;8.570;2023-05-07T12:25:43;21.40;99.90
23237;DHT22;11787;52.018;8.570;2023-05-07T12:28:14;21.60;99.90
23237;DHT22;11787;52.018;8.570;2023-05-07T12:30:44;21.80;99.90
23237;DHT22;11787;52.018;8.570;2023-05-07T12:33:10;21.40;99.90
23237;DHT22;11787;52.018;8.570;2023-05-07T12:35:40;21.00;99.90
23237;DHT22;11787;52.018;8.570;2023-05-07T12:38:16;20.80;99.90
23237;DHT22;11787;52.018;8.570;2023-05-07T12:40:50;20.90;99.90
23237;DHT22;11787;52.018;8.570;2023-05-07T12:43:27;21.00;99.90
23237;DHT22;11787;52.018;8.570;2023-05-07T12:45:55;21.50;99.90
23237;DHT22;11787;52.018;8.570;2023-05-07T12:48:22;21.50;99.90
23237;DHT22;11787;52.018;8.570;2023-05-07T12:50:51;21.40;99.90
23237;DHT22;11787;52.018;8.570;2023-05-07T12:53:21;21.60;99.90
23237;DHT22;11787;52.018;8.570;2023-05-07T12:55:48;21.20;99.90
23237;DHT22;11787;52.018;8.570;2023-05-07T12:58:25;21.50;99.90
23237;DHT22;11787;52.018;8.570;2023-05-07T13:00:52;21.70;99.90
23237;DHT22;11787;52.018;8.570;2023-05-07T13:03:26;21.80;99.90
23237;DHT22;11787;52.018;8.570;2023-05-07T13:05:52;21.90;99.90
23237;DHT22;11787;52.018;8.570;2023-05-07T13:08:32;21.70;99.90
23237;DHT22;11787;52.018;8.570;2023-05-07T13:11:02;21.70;99.90
23237;DHT22;11787;52.018;8.570;2023-05-07T13:13:30;21.60;99.90
23237;DHT22;11787;52.018;8.570;2023-05-07T13:15:56;21.40;99.90
23237;DHT22;11787;52.018;8.570;2023-05-07T13:18:21;21.10;99.90
23237;DHT22;11787;52.018;8.570;2023-05-07T13:20:47;21.20;99.90
23237;DHT22;11787;52.018;8.570;2023-05-07T13:23:13;21.30;99.90
23237;DHT22;11787;52.018;8.570;2023-05-07T13:25:38;21.20;99.90
23237;DHT22;11787;52.018;8.570;2023-05-07T13:28:04;21.20;99.90
23237;DHT22;11787;52.018;8.570;2023-05-07T13:30:30;21.20;99.90
23237;DHT22;11787;52.018;8.570;2023-05-07T13:32:55;21.20;99.90
23237;DHT22;11787;52.018;8.570;2023-05-07T13:35:21;21.20;99.90
23237;DHT22;11787;52.018;8.570;2023-05-07T13:37:47;21.20;99.90
23237;DHT22;11787;52.018;8.570;2023-05-07T13:40:17;21.10;99.90
23237;DHT22;11787;52.018;8.570;2023-05-07T13:42:43;21.00;99.90
23237;DHT22;11787;52.018;8.570;2023-05-07T13:45:09;20.70;99.90
23237;DHT22;11787;52.018;8.570;2023-05-07T13:47:35;20.60;99.90
23237;DHT22;11787;52.018;8.570;2023-05-07T13:50:01;20.30;99.90
23237;DHT22;11787;52.018;8.570;2023-05-07T13:52:26;20.20;99.90
23237;DHT22;11787;52.018;8.570;2023-05-07T13:54:52;20.10;99.90
23237;DHT22;11787;52.018;8.570;2023-05-07T13:57:18;19.60;99.90
23237;DHT22;11787;52.018;8.570;2023-05-07T13:59:43;19.60;99.90
23237;DHT22;11787;52.018;8.570;2023-05-07T14:02:09;19.70;99.90
23237;DHT22;11787;52.018;8.570;2023-05-07T14:04:35;19.80;99.90
23237;DHT22;11787;52.018;8.570;2023-05-07T14:07:00;19.80;99.90
23237;DHT22;11787;52.018;8.570;2023-05-07T14:09:26;19.80;99.90
23237;DHT22;11787;52.018;8.570;2023-05-07T14:11:51;19.70;99.90
23237;DHT22;11787;52.018;8.570;2023-05-07T14:14:18;19.60;99.90
23237;DHT22;11787;52.018;8.570;2023-05-07T14:16:44;19.80;99.90
23237;DHT22;11787;52.018;8.570;2023-05-07T14:19:11;20.00;99.90
23237;DHT22;11787;52.018;8.570;2023-05-07T14:21:37;20.20;99.90
23237;DHT22;11787;52.018;8.570;2023-05-07T14:24:02;20.30;99.90
23237;DHT22;11787;52.018;8.570;2023-05-07T14:26:28;19.90;99.90
23237;DHT22;11787;52.018;8.570;2023-05-07T14:28:54;19.60;99.90
23237;DHT22;11787;52.018;8.570;2023-05-07T14:31:22;19.40;99.90
23237;DHT22;11787;52.018;8.570;2023-05-07T14:33:48;19.50;99.90
23237;DHT22;11787;52.018;8.570;2023-05-07T14:36:16;19.60;99.90
23237;DHT22;11787;52.018;8.570;2023-05-07T14:57:12;19.40;99.90
23237;DHT22;11787;52.018;8.570;2023-05-07T14:59:40;19.30;99.90
23237;DHT22;11787;52.018;8.570;2023-05-07T15:02:06;19.30;99.90
23237;DHT22;11787;52.018;8.570;2023-05-07T15:04:33;19.20;99.90
23237;DHT22;11787;52.018;8.570;2023-05-07T15:06:59;19.20;99.90
23237;DHT22;11787;52.018;8.570;2023-05-07T15:09:25;19.40;99.90
23237;DHT22;11787;52.018;8.570;2023-05-07T15:11:51;19.50;99.90
23237;DHT22;11787;52.018;8.570;2023-05-07T15:14:16;19.60;99.90
23237;DHT22;11787;52.018;8.570;2023-05-07T15:16:42;19.70;99.90
23237;DHT22;11787;52.018;8.570;2023-05-07T15:19:07;19.70;99.90
23237;DHT22;11787;52.018;8.570;2023-05-07T15:21:33;19.40;99.90
23237;DHT22;11787;52.018;8.570;2023-05-07T15:24:01;19.10;99.90
23237;DHT22;11787;52.018;8.570;2023-05-07T15:26:26;19.20;99.90
23237;DHT22;11787;52.018;8.570;2023-05-07T15:28:52;19.30;99.90
23237;DHT22;11787;52.018;8.570;2023-05-07T15:31:18;19.40;99.90
23237;DHT22;11787;52.018;8.570;2023-05-07T15:33:43;19.40;99.90
23237;DHT22;11787;52.018;8.570;2023-05-07T15:36:10;19.40;99.90
23237;DHT22;11787;52.018;8.570;2023-05-07T15:38:36;19.40;99.90
23237;DHT22;11787;52.018;8.570;2023-05-07T15:41:01;19.30;99.90
23237;DHT22;11787;52.018;8.570;2023-05-07T15:43:28;19.20;99.90
23237;DHT22;11787;52.018;8.570;2023-05-07T15:45:53;19.10;99.90
23237;DHT22;11787;52.018;8.570;2023-05-07T15:48:19;19.00;99.90
23237;DHT22;11787;52.018;8.570;2023-05-07T15:50:45;18.70;99.90
23237;DHT22;11787;52.018;8.570;2023-05-07T15:53:11;18.70;99.90
23237;DHT22;11787;52.018;8.570;2023-05-07T15:55:39;18.70;99.90
23237;DHT22;11787;52.018;8.570;2023-05-07T15:58:05;18.80;99.90
23237;DHT22;11787;52.018;8.570;2023-05-07T16:00:31;18.60;99.90
23237;DHT22;11787;52.018;8.570;2023-05-07T16:02:57;18.70;99.90
23237;DHT22;11787;52.018;8.570;2023-05-07T16:05:22;18.80;99.90